sensor_id;sensor_type;location;lat;lon;timestamp;P1;durP1;ratioP1;P2;durP2;ratioP2
2548;SDS011;1284;53.520;10.248;2023-08-30T00:00:29;1.75;;;0.95;;
2548;SDS011;1284;53.520;10.248;2023-08-30T00:02:54;2.47;;;0.95;;
2548;SDS011;1284;53.520;10.248;2023-08-30T00:05:20;1.02;;;0.68;;
2548;SDS011;1284;53.520;10.248;2023-08-30T00:07:45;1.15;;;0.73;;
2548;SDS011;1284;53.520;10.248;2023-08-30T00:10:11;0.75;;;0.70;;
2548;SDS011;1284;53.520;10.248;2023-08-30T00:12:36;0.70;;;0.70;;
2548;SDS011;1284;53.520;10.248;2023-08-30T00:15:02;1.85;;;0.80;;
2548;SDS011;1284;53.520;10.248;2023-08-30T00:17:30;1.42;;;0.90;;
2548;SDS011;1284;53.520;10.248;2023-08-30T00:19:55;0.95;;;0.80;;
2548;SDS011;1284;53.520;10.248;2023-08-30T00:22:21;1.00;;;0.90;;
2548;SDS011;1284;53.520;10.248;2023-08-30T00:24:47;1.00;;;0.77;;
2548;SDS011;1284;53.520;10.248;2023-08-30T00:27:12;2.95;;;0.90;;
2548;SDS011;1284;53.520;10.248;2023-08-30T00:29:38;0.75;;;0.68;;
2548;SDS011;1284;53.520;10.248;2023-08-30T00:32:05;4.82;;;0.80;;
2548;SDS011;1284;53.520;10.248;2023-08-30T00:34:30;0.90;;;0.90;;
2548;SDS011;1284;53.520;10.248;2023-08-30T00:36:56;1.65;;;0.75;;
2548;SDS011;1284;53.520;10.248;2023-08-30T00:39:21;1.45;;;0.65;;
2548;SDS011;1284;53.520;10.248;2023-08-30T00:41:47;1.27;;;0.73;;
2548;SDS011;1284;53.520;10.248;2023-08-30T00:44:12;1.10;;;0.70;;
2548;SDS011;1284;53.520;10.248;2023-08-30T00:46:38;1.30;;;0.95;;
2548;SDS011;1284;53.520;10.248;2023-08-30T00:49:04;0.55;;;0.47;;
2548;SDS011;1284;53.520;10.248;2023-08-30T00:51:30;0.93;;;0.65;;
2548;SDS011;1284;53.520;10.248;2023-08-30T00:53:58;0.52;;;0.43;;
2548;SDS011;1284;53.520;10.248;2023-08-30T00:56:25;1.25;;;0.73;;
2548;SDS011;1284;53.520;10.248;2023-08-30T00:58:55;0.80;;;0.73;;
2548;SDS011;1284;53.520;10.248;2023-08-30T01:01:24;0.80;;;0.70;;
2548;SDS011;1284;53.520;10.248;2023-08-30T01:03:49;1.25;;;1.00;;
2548;SDS011;1284;53.520;10.248;2023-08-30T01:06:15;0.98;;;0.70;;
2548;SDS011;1284;53.520;10.248;2023-08-30T01:08:41;0.88;;;0.60;;
2548;SDS011;1284;53.520;10.248;2023-08-30T01:14:07;0.60;;;0.50;;
2548;SDS011;1284;53.520;10.248;2023-08-30T01:16:37;1.05;;;0.65;;
2548;SDS011;1284;53.520;10.248;2023-08-30T01:19:05;1.52;;;0.80;;
2548;SDS011;1284;53.520;10.248;2023-08-30T01:21:50;0.52;;;0.38;;
2548;SDS011;1284;53.520;10.248;2023-08-30T01:27:34;1.70;;;1.08;;
2548;SDS011;1284;53.520;10.248;2023-08-30T01:30:02;1.08;;;0.70;;
2548;SDS011;1284;53.520;10.248;2023-08-30T01:32:31;1.30;;;0.70;;
2548;SDS011;1284;53.520;10.248;2023-08-30T01:34:59;1.55;;;0.77;;
2548;SDS011;1284;53.520;10.248;2023-08-30T01:37:26;1.33;;;0.85;;
2548;SDS011;1284;53.520;10.248;2023-08-30T01:39:52;1.25;;;0.50;;
2548;SDS011;1284;53.520;10.248;2023-08-30T01:42:19;1.63;;;0.70;;
2548;SDS011;1284;53.520;10.248;2023-08-30T01:44:48;0.65;;;0.52;;
2548;SDS011;1284;53.520;10.248;2023-08-30T01:47:14;0.52;;;0.50;;
2548;SDS011;1284;53.520;10.248;2023-08-30T01:49:41;1.17;;;0.82;;
2548;SDS011;1284;53.520;10.248;2023-08-30T01:52:08;3.30;;;0.75;;
2548;SDS011;1284;53.520;10.248;2023-08-30T01:54:35;0.80;;;0.70;;
2548;SDS011;1284;53.520;10.248;2023-08-30T01:57:04;5.13;;;0.73;;
2548;SDS011;1284;53.520;10.248;2023-08-30T01:59:30;1.95;;;0.80;;
2548;SDS011;1284;53.520;10.248;2023-08-30T02:01:56;0.73;;;0.40;;
2548;SDS011;1284;53.520;10.248;2023-08-30T02:04:22;1.52;;;0.63;;
2548;SDS011;1284;53.520;10.248;2023-08-30T02:09:31;0.65;;;0.65;;
2548;SDS011;1284;53.520;10.248;2023-08-30T02:12:00;1.37;;;0.80;;
2548;SDS011;1284;53.520;10.248;2023-08-30T02:14:30;1.70;;;0.70;;
2548;SDS011;1284;53.520;10.248;2023-08-30T02:16:57;0.85;;;0.70;;
2548;SDS011;1284;53.520;10.248;2023-08-30T02:19:23;1.52;;;0.93;;
2548;SDS011;1284;53.520;10.248;2023-08-30T02:21:49;0.85;;;0.70;;
2548;SDS011;1284;53.520;10.248;2023-08-30T02:24:17;1.77;;;0.85;;
2548;SDS011;1284;53.520;10.248;2023-08-30T02:26:42;1.42;;;0.80;;
2548;SDS011;1284;53.520;10.248;2023-08-30T02:29:08;1.98;;;0.88;;
2548;SDS011;1284;53.520;10.248;2023-08-30T02:31:36;0.60;;;0.60;;
2548;SDS011;1284;53.520;10.248;2023-08-30T02:34:02;1.17;;;0.73;;
2548;SDS011;1284;53.520;10.248;2023-08-30T02:36:27;1.40;;;0.85;;
2548;SDS011;1284;53.520;10.248;2023-08-30T02:38:55;1.00;;;0.80;;
2548;SDS011;1284;53.520;10.248;2023-08-30T02:41:20;0.47;;;0.47;;
2548;SDS011;1284;53.520;10.248;2023-08-30T02:43:47;0.50;;;0.50;;
2548;SDS011;1284;53.520;10.248;2023-08-30T02:46:12;2.22;;;0.98;;
2548;SDS011;1284;53.520;10.248;2023-08-30T02:48:38;1.67;;;0.80;;
2548;SDS011;1284;53.520;10.248;2023-08-30T02:51:03;0.68;;;0.57;;
2548;SDS011;1284;53.520;10.248;2023-08-30T02:53:28;1.17;;;0.77;;
2548;SDS011;1284;53.520;10.248;2023-08-30T02:55:54;1.05;;;0.82;;
2548;SDS011;1284;53.520;10.248;2023-08-30T02:58:21;0.60;;;0.55;;
2548;SDS011;1284;53.520;10.248;2023-08-30T03:00:47;0.95;;;0.70;;
2548;SDS011;1284;53.520;10.248;2023-08-30T03:03:13;2.47;;;1.00;;
2548;SDS011;1284;53.520;10.248;2023-08-30T03:05:39;0.90;;;0.80;;
2548;SDS011;1284;53.520;10.248;2023-08-30T03:08:05;2.13;;;0.98;;
2548;SDS011;1284;53.520;10.248;2023-08-30T03:10:31;1.88;;;0.90;;
2548;SDS011;1284;53.520;10.248;2023-08-30T03:12:57;1.20;;;0.88;;
2548;SDS011;1284;53.520;10.248;2023-08-30T03:15:23;1.48;;;0.70;;
2548;SDS011;1284;53.520;10.248;2023-08-30T03:17:48;1.55;;;1.08;;
2548;SDS011;1284;53.520;10.248;2023-08-30T03:20:14;2.25;;;1.17;;
2548;SDS011;1284;53.520;10.248;2023-08-30T03:22:39;1.17;;;0.82;;
2548;SDS011;1284;53.520;10.248;2023-08-30T03:25:05;1.55;;;1.40;;
2548;SDS011;1284;53.520;10.248;2023-08-30T03:27:32;1.48;;;0.98;;
2548;SDS011;1284;53.520;10.248;2023-08-30T03:29:58;2.08;;;1.10;;
2548;SDS011;1284;53.520;10.248;2023-08-30T03:32:23;2.08;;;1.27;;
2548;SDS011;1284;53.520;10.248;2023-08-30T03:34:49;2.03;;;1.17;;
2548;SDS011;1284;53.520;10.248;2023-08-30T03:37:14;1.67;;;1.27;;
2548;SDS011;1284;53.520;10.248;2023-08-30T03:39:40;1.45;;;0.95;;
2548;SDS011;1284;53.520;10.248;2023-08-30T03:42:06;2.60;;;1.58;;
2548;SDS011;1284;53.520;10.248;2023-08-30T03:44:32;2.13;;;1.27;;
2548;SDS011;1284;53.520;10.248;2023-08-30T03:46:57;1.95;;;1.10;;
2548;SDS011;1284;53.520;10.248;2023-08-30T03:49:23;2.85;;;1.52;;
2548;SDS011;1284;53.520;10.248;2023-08-30T03:51:48;2.60;;;1.30;;
2548;SDS011;1284;53.520;10.248;2023-08-30T03:54:16;2.20;;;1.23;;
2548;SDS011;1284;53.520;10.248;2023-08-30T03:56:43;1.73;;;1.23;;
2548;SDS011;1284;53.520;10.248;2023-08-30T03:59:09;1.45;;;0.93;;
2548;SDS011;1284;53.520;10.248;2023-08-30T04:01:34;4.65;;;1.52;;
2548;SDS011;1284;53.520;10.248;2023-08-30T04:04:00;2.05;;;1.00;;
2548;SDS011;1284;53.520;10.248;2023-08-30T04:06:25;3.45;;;1.48;;
2548;SDS011;1284;53.520;10.248;2023-08-30T04:08:51;2.45;;;1.40;;
2548;SDS011;1284;53.520;10.248;2023-08-30T04:11:16;3.33;;;1.77;;
2548;SDS011;1284;53.520;10.248;2023-08-30T04:13:42;2.08;;;1.42;;
2548;SDS011;1284;53.520;10.248;2023-08-30T04:16:07;2.65;;;1.40;;
2548;SDS011;1284;53.520;10.248;2023-08-30T04:18:32;2.22;;;1.45;;
2548;SDS011;1284;53.520;10.248;2023-08-30T04:20:58;1.95;;;1.45;;
2548;SDS011;1284;53.520;10.248;2023-08-30T04:23:24;2.25;;;1.38;;
2548;SDS011;1284;53.520;10.248;2023-08-30T04:25:49;2.58;;;1.70;;
2548;SDS011;1284;53.520;10.248;2023-08-30T04:28:15;2.78;;;1.63;;
2548;SDS011;1284;53.520;10.248;2023-08-30T04:30:40;2.88;;;1.50;;
2548;SDS011;1284;53.520;10.248;2023-08-30T04:33:07;2.50;;;1.73;;
2548;SDS011;1284;53.520;10.248;2023-08-30T04:35:32;1.73;;;1.30;;
2548;SDS011;1284;53.520;10.248;2023-08-30T04:37:58;5.85;;;2.33;;
2548;SDS011;1284;53.520;10.248;2023-08-30T04:40:25;3.13;;;1.55;;
2548;SDS011;1284;53.520;10.248;2023-08-30T04:42:50;2.00;;;1.42;;
2548;SDS011;1284;53.520;10.248;2023-08-30T04:45:16;3.08;;;1.60;;
2548;SDS011;1284;53.520;10.248;2023-08-30T04:47:41;4.22;;;1.70;;
2548;SDS011;1284;53.520;10.248;2023-08-30T04:50:09;2.05;;;1.30;;
2548;SDS011;1284;53.520;10.248;2023-08-30T04:52:35;4.45;;;1.80;;
2548;SDS011;1284;53.520;10.248;2023-08-30T04:55:00;3.33;;;1.67;;
2548;SDS011;1284;53.520;10.248;2023-08-30T04:57:27;2.58;;;1.75;;
2548;SDS011;1284;53.520;10.248;2023-08-30T04:59:52;1.98;;;1.50;;
2548;SDS011;1284;53.520;10.248;2023-08-30T05:02:18;1.98;;;1.45;;
2548;SDS011;1284;53.520;10.248;2023-08-30T05:05:09;3.38;;;1.75;;
2548;SDS011;1284;53.520;10.248;2023-08-30T05:07:35;3.05;;;1.60;;
2548;SDS011;1284;53.520;10.248;2023-08-30T05:10:01;2.00;;;1.55;;
2548;SDS011;1284;53.520;10.248;2023-08-30T05:12:28;3.97;;;1.52;;
2548;SDS011;1284;53.520;10.248;2023-08-30T05:14:54;2.20;;;1.42;;
2548;SDS011;1284;53.520;10.248;2023-08-30T05:17:19;1.50;;;1.27;;
2548;SDS011;1284;53.520;10.248;2023-08-30T05:19:45;2.08;;;1.45;;
2548;SDS011;1284;53.520;10.248;2023-08-30T05:22:10;2.80;;;1.73;;
2548;SDS011;1284;53.520;10.248;2023-08-30T05:24:36;2.65;;;1.30;;
2548;SDS011;1284;53.520;10.248;2023-08-30T05:27:02;5.05;;;1.75;;
2548;SDS011;1284;53.520;10.248;2023-08-30T05:29:35;4.18;;;1.38;;
2548;SDS011;1284;53.520;10.248;2023-08-30T05:32:23;4.28;;;1.70;;
2548;SDS011;1284;53.520;10.248;2023-08-30T05:35:18;1.92;;;1.48;;
2548;SDS011;1284;53.520;10.248;2023-08-30T05:37:53;1.67;;;1.33;;
2548;SDS011;1284;53.520;10.248;2023-08-30T05:40:34;2.95;;;1.38;;
2548;SDS011;1284;53.520;10.248;2023-08-30T05:43:01;2.88;;;1.70;;
2548;SDS011;1284;53.520;10.248;2023-08-30T05:45:27;2.58;;;1.67;;
2548;SDS011;1284;53.520;10.248;2023-08-30T05:47:52;2.35;;;1.50;;
2548;SDS011;1284;53.520;10.248;2023-08-30T05:50:17;2.35;;;1.50;;
2548;SDS011;1284;53.520;10.248;2023-08-30T05:52:43;2.33;;;1.30;;
2548;SDS011;1284;53.520;10.248;2023-08-30T05:55:10;3.75;;;1.58;;
2548;SDS011;1284;53.520;10.248;2023-08-30T05:57:35;1.90;;;1.35;;
2548;SDS011;1284;53.520;10.248;2023-08-30T06:00:02;2.20;;;1.42;;
2548;SDS011;1284;53.520;10.248;2023-08-30T06:02:39;2.33;;;1.52;;
2548;SDS011;1284;53.520;10.248;2023-08-30T06:05:05;2.38;;;1.33;;
2548;SDS011;1284;53.520;10.248;2023-08-30T06:07:31;1.65;;;1.02;;
2548;SDS011;1284;53.520;10.248;2023-08-30T06:09:57;2.40;;;1.55;;
2548;SDS011;1284;53.520;10.248;2023-08-30T06:12:22;3.22;;;1.65;;
2548;SDS011;1284;53.520;10.248;2023-08-30T06:14:48;2.20;;;1.48;;
2548;SDS011;1284;53.520;10.248;2023-08-30T06:17:17;2.97;;;1.70;;
2548;SDS011;1284;53.520;10.248;2023-08-30T06:19:44;2.05;;;1.30;;
2548;SDS011;1284;53.520;10.248;2023-08-30T06:22:10;4.20;;;1.92;;
2548;SDS011;1284;53.520;10.248;2023-08-30T06:24:35;4.30;;;1.58;;
2548;SDS011;1284;53.520;10.248;2023-08-30T06:27:01;1.83;;;1.27;;
2548;SDS011;1284;53.520;10.248;2023-08-30T06:29:26;2.58;;;1.60;;
2548;SDS011;1284;53.520;10.248;2023-08-30T06:31:52;2.00;;;1.42;;
2548;SDS011;1284;53.520;10.248;2023-08-30T06:34:20;2.25;;;1.48;;
2548;SDS011;1284;53.520;10.248;2023-08-30T06:36:46;4.72;;;2.05;;
2548;SDS011;1284;53.520;10.248;2023-08-30T06:39:12;4.03;;;2.08;;
2548;SDS011;1284;53.520;10.248;2023-08-30T06:41:37;3.47;;;1.90;;
2548;SDS011;1284;53.520;10.248;2023-08-30T06:44:02;2.10;;;1.50;;
2548;SDS011;1284;53.520;10.248;2023-08-30T06:46:29;2.20;;;1.58;;
2548;SDS011;1284;53.520;10.248;2023-08-30T06:48:54;2.67;;;1.48;;
2548;SDS011;1284;53.520;10.248;2023-08-30T06:51:19;3.60;;;1.77;;
2548;SDS011;1284;53.520;10.248;2023-08-30T06:53:45;3.33;;;2.50;;
2548;SDS011;1284;53.520;10.248;2023-08-30T06:56:12;6.25;;;1.92;;
2548;SDS011;1284;53.520;10.248;2023-08-30T06:58:37;3.97;;;1.80;;
2548;SDS011;1284;53.520;10.248;2023-08-30T07:01:03;3.95;;;1.60;;
2548;SDS011;1284;53.520;10.248;2023-08-30T07:03:28;1.75;;;1.25;;
2548;SDS011;1284;53.520;10.248;2023-08-30T07:05:54;2.63;;;1.67;;
2548;SDS011;1284;53.520;10.248;2023-08-30T07:08:19;3.15;;;1.63;;
2548;SDS011;1284;53.520;10.248;2023-08-30T07:10:45;1.77;;;1.27;;
2548;SDS011;1284;53.520;10.248;2023-08-30T07:13:11;1.45;;;1.25;;
2548;SDS011;1284;53.520;10.248;2023-08-30T07:15:40;2.10;;;1.60;;
2548;SDS011;1284;53.520;10.248;2023-08-30T07:18:07;3.83;;;1.60;;
2548;SDS011;1284;53.520;10.248;2023-08-30T07:20:33;1.65;;;1.20;;
2548;SDS011;1284;53.520;10.248;2023-08-30T07:22:59;3.60;;;1.48;;
2548;SDS011;1284;53.520;10.248;2023-08-30T07:25:26;2.85;;;1.60;;
2548;SDS011;1284;53.520;10.248;2023-08-30T07:27:51;2.50;;;1.80;;
2548;SDS011;1284;53.520;10.248;2023-08-30T07:30:17;2.90;;;1.95;;
2548;SDS011;1284;53.520;10.248;2023-08-30T07:32:42;3.17;;;1.85;;
2548;SDS011;1284;53.520;10.248;2023-08-30T07:35:08;2.17;;;1.58;;
2548;SDS011;1284;53.520;10.248;2023-08-30T07:37:34;2.72;;;1.80;;
2548;SDS011;1284;53.520;10.248;2023-08-30T07:40:00;1.15;;;0.90;;
2548;SDS011;1284;53.520;10.248;2023-08-30T07:42:26;2.25;;;1.42;;
2548;SDS011;1284;53.520;10.248;2023-08-30T07:44:51;3.35;;;1.58;;
2548;SDS011;1284;53.520;10.248;2023-08-30T07:47:17;2.28;;;1.27;;
2548;SDS011;1284;53.520;10.248;2023-08-30T07:49:42;2.40;;;1.30;;
2548;SDS011;1284;53.520;10.248;2023-08-30T07:52:08;2.03;;;1.33;;
2548;SDS011;1284;53.520;10.248;2023-08-30T07:54:36;1.85;;;1.35;;
2548;SDS011;1284;53.520;10.248;2023-08-30T07:57:03;1.67;;;1.25;;
2548;SDS011;1284;53.520;10.248;2023-08-30T07:59:29;2.88;;;1.80;;
2548;SDS011;1284;53.520;10.248;2023-08-30T08:02:00;2.10;;;1.67;;
2548;SDS011;1284;53.520;10.248;2023-08-30T08:04:25;2.50;;;1.40;;
2548;SDS011;1284;53.520;10.248;2023-08-30T08:06:51;2.15;;;1.73;;
2548;SDS011;1284;53.520;10.248;2023-08-30T08:09:17;3.78;;;1.95;;
2548;SDS011;1284;53.520;10.248;2023-08-30T08:11:43;2.80;;;1.90;;
2548;SDS011;1284;53.520;10.248;2023-08-30T08:14:11;5.82;;;1.50;;
2548;SDS011;1284;53.520;10.248;2023-08-30T08:16:37;2.63;;;1.45;;
2548;SDS011;1284;53.520;10.248;2023-08-30T08:19:02;2.47;;;1.55;;
2548;SDS011;1284;53.520;10.248;2023-08-30T08:21:28;2.25;;;1.77;;
2548;SDS011;1284;53.520;10.248;2023-08-30T08:23:54;3.10;;;1.88;;
2548;SDS011;1284;53.520;10.248;2023-08-30T08:26:19;3.67;;;2.30;;
2548;SDS011;1284;53.520;10.248;2023-08-30T08:28:45;3.33;;;1.85;;
2548;SDS011;1284;53.520;10.248;2023-08-30T08:31:10;2.60;;;1.73;;
2548;SDS011;1284;53.520;10.248;2023-08-30T08:33:36;4.97;;;1.67;;
2548;SDS011;1284;53.520;10.248;2023-08-30T08:36:01;3.17;;;1.55;;
2548;SDS011;1284;53.520;10.248;2023-08-30T08:38:27;3.60;;;1.83;;
2548;SDS011;1284;53.520;10.248;2023-08-30T08:41:00;4.35;;;2.45;;
2548;SDS011;1284;53.520;10.248;2023-08-30T08:43:29;2.50;;;1.52;;
2548;SDS011;1284;53.520;10.248;2023-08-30T08:45:56;2.97;;;1.75;;
2548;SDS011;1284;53.520;10.248;2023-08-30T08:48:25;4.43;;;2.30;;
2548;SDS011;1284;53.520;10.248;2023-08-30T08:50:53;2.55;;;1.50;;
2548;SDS011;1284;53.520;10.248;2023-08-30T08:53:19;2.92;;;1.50;;
2548;SDS011;1284;53.520;10.248;2023-08-30T08:55:46;2.42;;;1.60;;
2548;SDS011;1284;53.520;10.248;2023-08-30T08:58:14;2.92;;;1.77;;
2548;SDS011;1284;53.520;10.248;2023-08-30T09:00:43;2.75;;;1.92;;
2548;SDS011;1284;53.520;10.248;2023-08-30T09:03:09;3.72;;;1.83;;
2548;SDS011;1284;53.520;10.248;2023-08-30T09:05:38;3.55;;;1.90;;
2548;SDS011;1284;53.520;10.248;2023-08-30T09:08:04;5.85;;;2.40;;
2548;SDS011;1284;53.520;10.248;2023-08-30T09:10:34;4.80;;;1.95;;
2548;SDS011;1284;53.520;10.248;2023-08-30T09:13:00;3.08;;;2.30;;
2548;SDS011;1284;53.520;10.248;2023-08-30T09:15:31;5.72;;;2.30;;
2548;SDS011;1284;53.520;10.248;2023-08-30T09:18:03;3.17;;;2.10;;
2548;SDS011;1284;53.520;10.248;2023-08-30T09:20:29;3.28;;;1.65;;
2548;SDS011;1284;53.520;10.248;2023-08-30T09:22:54;3.97;;;2.00;;
2548;SDS011;1284;53.520;10.248;2023-08-30T09:25:24;3.33;;;2.15;;
2548;SDS011;1284;53.520;10.248;2023-08-30T09:27:50;3.00;;;1.90;;
2548;SDS011;1284;53.520;10.248;2023-08-30T09:30:22;3.38;;;1.92;;
2548;SDS011;1284;53.520;10.248;2023-08-30T09:32:48;1.90;;;1.35;;
2548;SDS011;1284;53.520;10.248;2023-08-30T09:35:39;4.72;;;2.00;;
2548;SDS011;1284;53.520;10.248;2023-08-30T09:38:15;2.22;;;1.23;;
2548;SDS011;1284;53.520;10.248;2023-08-30T09:41:04;3.58;;;2.08;;
2548;SDS011;1284;53.520;10.248;2023-08-30T09:43:29;3.85;;;2.38;;
2548;SDS011;1284;53.520;10.248;2023-08-30T09:45:57;4.90;;;2.13;;
2548;SDS011;1284;53.520;10.248;2023-08-30T09:48:23;3.53;;;1.80;;
2548;SDS011;1284;53.520;10.248;2023-08-30T09:50:53;2.08;;;1.45;;
2548;SDS011;1284;53.520;10.248;2023-08-30T09:53:20;4.20;;;1.70;;
2548;SDS011;1284;53.520;10.248;2023-08-30T09:56:08;2.28;;;1.27;;
2548;SDS011;1284;53.520;10.248;2023-08-30T09:58:54;2.17;;;1.40;;
2548;SDS011;1284;53.520;10.248;2023-08-30T10:01:20;2.67;;;1.40;;
2548;SDS011;1284;53.520;10.248;2023-08-30T10:03:45;1.70;;;1.20;;
2548;SDS011;1284;53.520;10.248;2023-08-30T10:06:12;3.30;;;1.95;;
2548;SDS011;1284;53.520;10.248;2023-08-30T10:08:37;2.65;;;1.45;;
2548;SDS011;1284;53.520;10.248;2023-08-30T10:11:04;3.13;;;1.40;;
2548;SDS011;1284;53.520;10.248;2023-08-30T10:13:30;2.60;;;1.55;;
2548;SDS011;1284;53.520;10.248;2023-08-30T10:16:04;3.05;;;1.85;;
2548;SDS011;1284;53.520;10.248;2023-08-30T10:18:29;3.05;;;1.55;;
2548;SDS011;1284;53.520;10.248;2023-08-30T10:20:57;3.42;;;1.40;;
2548;SDS011;1284;53.520;10.248;2023-08-30T10:23:24;3.03;;;1.73;;
2548;SDS011;1284;53.520;10.248;2023-08-30T10:25:51;2.35;;;1.58;;
2548;SDS011;1284;53.520;10.248;2023-08-30T10:28:18;3.20;;;1.55;;
2548;SDS011;1284;53.520;10.248;2023-08-30T10:30:47;3.58;;;1.80;;
2548;SDS011;1284;53.520;10.248;2023-08-30T10:33:12;2.38;;;1.45;;
2548;SDS011;1284;53.520;10.248;2023-08-30T10:35:48;2.30;;;1.35;;
2548;SDS011;1284;53.520;10.248;2023-08-30T10:38:27;1.50;;;1.00;;
2548;SDS011;1284;53.520;10.248;2023-08-30T10:41:05;1.58;;;1.02;;
2548;SDS011;1284;53.520;10.248;2023-08-30T10:46:11;1.13;;;0.68;;
2548;SDS011;1284;53.520;10.248;2023-08-30T10:48:37;2.38;;;1.20;;
2548;SDS011;1284;53.520;10.248;2023-08-30T10:53:32;1.88;;;1.15;;
2548;SDS011;1284;53.520;10.248;2023-08-30T10:56:10;2.88;;;1.10;;
2548;SDS011;1284;53.520;10.248;2023-08-30T10:58:44;1.75;;;1.00;;
2548;SDS011;1284;53.520;10.248;2023-08-30T11:01:10;1.40;;;1.00;;
2548;SDS011;1284;53.520;10.248;2023-08-30T11:03:41;4.70;;;1.38;;
2548;SDS011;1284;53.520;10.248;2023-08-30T11:06:27;1.75;;;0.95;;
2548;SDS011;1284;53.520;10.248;2023-08-30T11:08:53;0.63;;;0.60;;
2548;SDS011;1284;53.520;10.248;2023-08-30T11:11:20;1.42;;;0.80;;
2548;SDS011;1284;53.520;10.248;2023-08-30T11:14:08;1.95;;;1.23;;
2548;SDS011;1284;53.520;10.248;2023-08-30T11:16:35;2.00;;;0.82;;
2548;SDS011;1284;53.520;10.248;2023-08-30T11:19:04;1.73;;;1.25;;
2548;SDS011;1284;53.520;10.248;2023-08-30T11:21:30;1.33;;;0.80;;
2548;SDS011;1284;53.520;10.248;2023-08-30T11:23:57;1.38;;;0.95;;
2548;SDS011;1284;53.520;10.248;2023-08-30T11:26:25;1.67;;;1.02;;
2548;SDS011;1284;53.520;10.248;2023-08-30T11:28:54;1.83;;;1.08;;
2548;SDS011;1284;53.520;10.248;2023-08-30T11:31:24;1.08;;;0.70;;
2548;SDS011;1284;53.520;10.248;2023-08-30T11:33:53;2.15;;;1.25;;
2548;SDS011;1284;53.520;10.248;2023-08-30T11:36:23;2.30;;;1.23;;
2548;SDS011;1284;53.520;10.248;2023-08-30T11:41:19;2.05;;;1.45;;
2548;SDS011;1284;53.520;10.248;2023-08-30T11:43:46;2.95;;;1.35;;
2548;SDS011;1284;53.520;10.248;2023-08-30T11:46:12;1.98;;;1.35;;
2548;SDS011;1284;53.520;10.248;2023-08-30T11:48:41;1.75;;;1.17;;
2548;SDS011;1284;53.520;10.248;2023-08-30T11:51:07;2.45;;;1.13;;
2548;SDS011;1284;53.520;10.248;2023-08-30T11:53:33;2.72;;;1.10;;
2548;SDS011;1284;53.520;10.248;2023-08-30T11:56:02;2.50;;;1.45;;
2548;SDS011;1284;53.520;10.248;2023-08-30T11:58:31;3.92;;;1.60;;
2548;SDS011;1284;53.520;10.248;2023-08-30T12:00:58;4.97;;;1.30;;
2548;SDS011;1284;53.520;10.248;2023-08-30T12:03:28;1.30;;;0.73;;
2548;SDS011;1284;53.520;10.248;2023-08-30T12:05:54;1.58;;;0.98;;
2548;SDS011;1284;53.520;10.248;2023-08-30T12:08:21;1.55;;;1.10;;
2548;SDS011;1284;53.520;10.248;2023-08-30T12:10:49;2.88;;;1.05;;
2548;SDS011;1284;53.520;10.248;2023-08-30T12:13:27;0.88;;;0.82;;
2548;SDS011;1284;53.520;10.248;2023-08-30T12:16:02;1.20;;;0.85;;
2548;SDS011;1284;53.520;10.248;2023-08-30T12:18:37;3.65;;;1.10;;
2548;SDS011;1284;53.520;10.248;2023-08-30T12:21:05;1.58;;;0.70;;
2548;SDS011;1284;53.520;10.248;2023-08-30T12:23:33;1.48;;;1.02;;
2548;SDS011;1284;53.520;10.248;2023-08-30T12:25:59;1.63;;;0.73;;
2548;SDS011;1284;53.520;10.248;2023-08-30T12:28:45;1.27;;;0.90;;
2548;SDS011;1284;53.520;10.248;2023-08-30T12:31:11;1.00;;;0.75;;
2548;SDS011;1284;53.520;10.248;2023-08-30T12:33:37;2.78;;;1.00;;
2548;SDS011;1284;53.520;10.248;2023-08-30T12:36:03;1.50;;;0.93;;
2548;SDS011;1284;53.520;10.248;2023-08-30T12:38:29;1.13;;;0.80;;
2548;SDS011;1284;53.520;10.248;2023-08-30T12:40:55;1.60;;;1.00;;
2548;SDS011;1284;53.520;10.248;2023-08-30T12:43:21;2.90;;;0.98;;
2548;SDS011;1284;53.520;10.248;2023-08-30T12:45:48;1.83;;;1.05;;
2548;SDS011;1284;53.520;10.248;2023-08-30T12:48:16;1.58;;;0.93;;
2548;SDS011;1284;53.520;10.248;2023-08-30T12:51:02;1.27;;;0.85;;
2548;SDS011;1284;53.520;10.248;2023-08-30T12:53:28;2.30;;;1.02;;
2548;SDS011;1284;53.520;10.248;2023-08-30T12:55:54;1.13;;;0.80;;
2548;SDS011;1284;53.520;10.248;2023-08-30T12:58:19;1.10;;;0.80;;
2548;SDS011;1284;53.520;10.248;2023-08-30T13:00:45;1.55;;;1.05;;
2548;SDS011;1284;53.520;10.248;2023-08-30T13:03:11;2.25;;;1.10;;
2548;SDS011;1284;53.520;10.248;2023-08-30T13:05:36;1.92;;;1.10;;
2548;SDS011;1284;53.520;10.248;2023-08-30T13:08:02;3.00;;;1.20;;
2548;SDS011;1284;53.520;10.248;2023-08-30T13:10:27;3.05;;;1.30;;
2548;SDS011;1284;53.520;10.248;2023-08-30T13:12:53;1.83;;;1.20;;
2548;SDS011;1284;53.520;10.248;2023-08-30T13:15:18;1.85;;;1.35;;
2548;SDS011;1284;53.520;10.248;2023-08-30T13:17:44;1.83;;;1.10;;
2548;SDS011;1284;53.520;10.248;2023-08-30T13:20:09;2.30;;;1.20;;
2548;SDS011;1284;53.520;10.248;2023-08-30T13:22:36;1.17;;;0.93;;
2548;SDS011;1284;53.520;10.248;2023-08-30T13:25:02;1.73;;;1.13;;
2548;SDS011;1284;53.520;10.248;2023-08-30T13:27:29;3.47;;;1.20;;
2548;SDS011;1284;53.520;10.248;2023-08-30T13:29:54;0.75;;;0.63;;
2548;SDS011;1284;53.520;10.248;2023-08-30T13:32:20;2.53;;;1.10;;
2548;SDS011;1284;53.520;10.248;2023-08-30T13:34:45;1.13;;;1.00;;
2548;SDS011;1284;53.520;10.248;2023-08-30T13:37:12;1.00;;;0.90;;
2548;SDS011;1284;53.520;10.248;2023-08-30T13:39:38;4.38;;;1.00;;
2548;SDS011;1284;53.520;10.248;2023-08-30T13:42:04;2.33;;;1.27;;
2548;SDS011;1284;53.520;10.248;2023-08-30T13:44:30;1.17;;;0.77;;
2548;SDS011;1284;53.520;10.248;2023-08-30T13:46:57;1.55;;;1.20;;
2548;SDS011;1284;53.520;10.248;2023-08-30T13:49:25;1.95;;;1.10;;
2548;SDS011;1284;53.520;10.248;2023-08-30T13:51:52;1.55;;;1.13;;
2548;SDS011;1284;53.520;10.248;2023-08-30T13:54:18;1.92;;;0.70;;
2548;SDS011;1284;53.520;10.248;2023-08-30T13:56:43;1.92;;;1.10;;
2548;SDS011;1284;53.520;10.248;2023-08-30T13:59:08;1.95;;;1.02;;
2548;SDS011;1284;53.520;10.248;2023-08-30T14:01:34;2.53;;;1.35;;
2548;SDS011;1284;53.520;10.248;2023-08-30T14:04:02;0.82;;;0.80;;
2548;SDS011;1284;53.520;10.248;2023-08-30T14:06:30;4.03;;;1.20;;
2548;SDS011;1284;53.520;10.248;2023-08-30T14:08:56;2.85;;;0.93;;
2548;SDS011;1284;53.520;10.248;2023-08-30T14:11:22;1.70;;;1.08;;
2548;SDS011;1284;53.520;10.248;2023-08-30T14:13:47;1.88;;;1.02;;
2548;SDS011;1284;53.520;10.248;2023-08-30T14:16:13;2.42;;;1.30;;
2548;SDS011;1284;53.520;10.248;2023-08-30T14:18:38;1.48;;;1.08;;
2548;SDS011;1284;53.520;10.248;2023-08-30T14:21:04;2.20;;;1.10;;
2548;SDS011;1284;53.520;10.248;2023-08-30T14:23:49;1.60;;;0.90;;
2548;SDS011;1284;53.520;10.248;2023-08-30T14:26:15;2.55;;;1.20;;
2548;SDS011;1284;53.520;10.248;2023-08-30T14:28:40;1.10;;;0.88;;
2548;SDS011;1284;53.520;10.248;2023-08-30T14:31:06;1.80;;;0.80;;
2548;SDS011;1284;53.520;10.248;2023-08-30T14:33:41;5.45;;;1.00;;
2548;SDS011;1284;53.520;10.248;2023-08-30T14:36:09;1.08;;;0.80;;
2548;SDS011;1284;53.520;10.248;2023-08-30T14:38:35;0.85;;;0.80;;
2548;SDS011;1284;53.520;10.248;2023-08-30T14:41:02;2.40;;;1.45;;
2548;SDS011;1284;53.520;10.248;2023-08-30T14:43:28;2.33;;;1.30;;
2548;SDS011;1284;53.520;10.248;2023-08-30T14:46:00;1.90;;;1.15;;
2548;SDS011;1284;53.520;10.248;2023-08-30T14:48:27;1.27;;;1.00;;
2548;SDS011;1284;53.520;10.248;2023-08-30T14:50:52;2.55;;;1.25;;
2548;SDS011;1284;53.520;10.248;2023-08-30T14:53:17;1.35;;;1.00;;
2548;SDS011;1284;53.520;10.248;2023-08-30T14:55:46;1.25;;;0.77;;
2548;SDS011;1284;53.520;10.248;2023-08-30T14:58:12;1.48;;;0.93;;
2548;SDS011;1284;53.520;10.248;2023-08-30T15:00:38;4.00;;;0.93;;
2548;SDS011;1284;53.520;10.248;2023-08-30T15:03:04;2.40;;;0.98;;
2548;SDS011;1284;53.520;10.248;2023-08-30T15:05:30;1.45;;;1.20;;
2548;SDS011;1284;53.520;10.248;2023-08-30T15:07:55;1.92;;;1.20;;
2548;SDS011;1284;53.520;10.248;2023-08-30T15:10:20;1.27;;;1.05;;
2548;SDS011;1284;53.520;10.248;2023-08-30T15:12:46;1.00;;;0.70;;
2548;SDS011;1284;53.520;10.248;2023-08-30T15:15:13;2.53;;;1.77;;
2548;SDS011;1284;53.520;10.248;2023-08-30T15:17:39;1.45;;;0.88;;